sensor_id;sensor_type;location;lat;lon;timestamp;P1;durP1;ratioP1;P2;durP2;ratioP2
14994;SDS011;7593;49.006;8.372;2023-06-14T00:00:33;7.40;;;4.15;;
14994;SDS011;7593;49.006;8.372;2023-06-14T00:03:00;5.13;;;4.30;;
14994;SDS011;7593;49.006;8.372;2023-06-14T00:05:28;8.50;;;4.20;;
14994;SDS011;7593;49.006;8.372;2023-06-14T00:07:57;4.82;;;4.05;;
14994;SDS011;7593;49.006;8.372;2023-06-14T00:10:25;4.57;;;3.83;;
14994;SDS011;7593;49.006;8.372;2023-06-14T00:12:57;4.43;;;4.03;;
14994;SDS011;7593;49.006;8.372;2023-06-14T00:15:24;6.28;;;4.10;;
14994;SDS011;7593;49.006;8.372;2023-06-14T00:17:51;7.97;;;4.20;;
14994;SDS011;7593;49.006;8.372;2023-06-14T00:20:19;4.30;;;3.90;;
14994;SDS011;7593;49.006;8.372;2023-06-14T00:22:46;6.47;;;4.30;;
14994;SDS011;7593;49.006;8.372;2023-06-14T00:25:13;4.88;;;4.38;;
14994;SDS011;7593;49.006;8.372;2023-06-14T00:27:40;4.75;;;4.18;;
14994;SDS011;7593;49.006;8.372;2023-06-14T00:30:08;5.07;;;4.40;;
14994;SDS011;7593;49.006;8.372;2023-06-14T00:32:36;4.82;;;4.20;;
14994;SDS011;7593;49.006;8.372;2023-06-14T00:35:03;8.63;;;4.18;;
14994;SDS011;7593;49.006;8.372;2023-06-14T00:37:30;5.75;;;3.88;;
14994;SDS011;7593;49.006;8.372;2023-06-14T00:39:56;4.90;;;4.10;;
14994;SDS011;7593;49.006;8.372;2023-06-14T00:42:23;4.55;;;4.13;;
14994;SDS011;7593;49.006;8.372;2023-06-14T00:44:51;5.40;;;4.32;;
14994;SDS011;7593;49.006;8.372;2023-06-14T00:47:19;6.40;;;4.20;;
14994;SDS011;7593;49.006;8.372;2023-06-14T00:49:47;7.75;;;4.05;;
14994;SDS011;7593;49.006;8.372;2023-06-14T00:52:16;5.03;;;3.75;;
14994;SDS011;7593;49.006;8.372;2023-06-14T00:54:43;5.07;;;4.00;;
14994;SDS011;7593;49.006;8.372;2023-06-14T00:57:10;4.13;;;3.72;;
14994;SDS011;7593;49.006;8.372;2023-06-14T00:59:40;5.55;;;4.28;;
14994;SDS011;7593;49.006;8.372;2023-06-14T01:02:09;6.40;;;4.30;;
14994;SDS011;7593;49.006;8.372;2023-06-14T01:04:37;4.35;;;3.95;;
14994;SDS011;7593;49.006;8.372;2023-06-14T01:07:07;6.30;;;4.20;;
14994;SDS011;7593;49.006;8.372;2023-06-14T01:09:41;6.20;;;3.97;;
14994;SDS011;7593;49.006;8.372;2023-06-14T01:12:15;8.63;;;3.97;;
14994;SDS011;7593;49.006;8.372;2023-06-14T01:14:47;6.50;;;4.40;;
14994;SDS011;7593;49.006;8.372;2023-06-14T01:17:15;7.10;;;4.03;;
14994;SDS011;7593;49.006;8.372;2023-06-14T01:19:44;6.85;;;4.05;;
14994;SDS011;7593;49.006;8.372;2023-06-14T01:22:11;6.30;;;4.00;;
14994;SDS011;7593;49.006;8.372;2023-06-14T01:24:39;5.57;;;4.25;;
14994;SDS011;7593;49.006;8.372;2023-06-14T01:27:09;5.22;;;4.25;;
14994;SDS011;7593;49.006;8.372;2023-06-14T01:29:37;4.85;;;4.15;;
14994;SDS011;7593;49.006;8.372;2023-06-14T01:32:10;7.30;;;3.90;;
14994;SDS011;7593;49.006;8.372;2023-06-14T01:34:38;7.97;;;4.65;;
14994;SDS011;7593;49.006;8.372;2023-06-14T01:37:05;6.55;;;3.70;;
14994;SDS011;7593;49.006;8.372;2023-06-14T01:39:32;4.88;;;4.03;;
14994;SDS011;7593;49.006;8.372;2023-06-14T01:42:01;5.03;;;3.90;;
14994;SDS011;7593;49.006;8.372;2023-06-14T01:44:29;4.50;;;4.10;;
14994;SDS011;7593;49.006;8.372;2023-06-14T01:46:57;5.22;;;3.80;;
14994;SDS011;7593;49.006;8.372;2023-06-14T01:49:24;4.13;;;3.70;;
14994;SDS011;7593;49.006;8.372;2023-06-14T01:51:52;4.57;;;4.05;;
14994;SDS011;7593;49.006;8.372;2023-06-14T01:54:19;6.85;;;3.92;;
14994;SDS011;7593;49.006;8.372;2023-06-14T01:56:46;4.80;;;3.75;;
14994;SDS011;7593;49.006;8.372;2023-06-14T01:59:14;6.72;;;4.10;;
14994;SDS011;7593;49.006;8.372;2023-06-14T02:01:41;5.30;;;4.28;;
14994;SDS011;7593;49.006;8.372;2023-06-14T02:04:08;5.00;;;3.92;;
14994;SDS011;7593;49.006;8.372;2023-06-14T02:06:35;5.28;;;4.05;;
14994;SDS011;7593;49.006;8.372;2023-06-14T02:09:02;4.30;;;3.90;;
14994;SDS011;7593;49.006;8.372;2023-06-14T02:11:29;5.07;;;4.00;;
14994;SDS011;7593;49.006;8.372;2023-06-14T02:13:55;7.65;;;3.97;;
14994;SDS011;7593;49.006;8.372;2023-06-14T02:16:26;5.15;;;4.10;;
14994;SDS011;7593;49.006;8.372;2023-06-14T02:18:54;5.43;;;3.80;;
14994;SDS011;7593;49.006;8.372;2023-06-14T02:21:22;5.03;;;4.10;;
14994;SDS011;7593;49.006;8.372;2023-06-14T02:23:48;6.38;;;4.30;;
14994;SDS011;7593;49.006;8.372;2023-06-14T02:26:15;5.28;;;4.00;;
14994;SDS011;7593;49.006;8.372;2023-06-14T02:28:42;4.93;;;4.43;;
14994;SDS011;7593;49.006;8.372;2023-06-14T02:31:08;5.55;;;4.10;;
14994;SDS011;7593;49.006;8.372;2023-06-14T02:33:36;4.53;;;4.10;;
14994;SDS011;7593;49.006;8.372;2023-06-14T02:36:03;6.60;;;4.53;;
14994;SDS011;7593;49.006;8.372;2023-06-14T02:38:30;5.15;;;4.50;;
14994;SDS011;7593;49.006;8.372;2023-06-14T02:40:57;4.90;;;3.88;;
14994;SDS011;7593;49.006;8.372;2023-06-14T02:43:26;6.38;;;4.57;;
14994;SDS011;7593;49.006;8.372;2023-06-14T02:45:54;5.43;;;4.15;;
14994;SDS011;7593;49.006;8.372;2023-06-14T02:48:21;7.13;;;4.57;;
14994;SDS011;7593;49.006;8.372;2023-06-14T02:50:49;5.00;;;4.50;;
14994;SDS011;7593;49.006;8.372;2023-06-14T02:53:16;4.50;;;4.10;;
14994;SDS011;7593;49.006;8.372;2023-06-14T02:55:43;4.78;;;4.18;;
14994;SDS011;7593;49.006;8.372;2023-06-14T02:58:09;6.22;;;5.72;;
14994;SDS011;7593;49.006;8.372;2023-06-14T03:00:36;7.40;;;6.20;;
14994;SDS011;7593;49.006;8.372;2023-06-14T03:03:03;6.70;;;4.95;;
14994;SDS011;7593;49.006;8.372;2023-06-14T03:05:37;5.18;;;4.68;;
14994;SDS011;7593;49.006;8.372;2023-06-14T03:08:07;6.75;;;5.13;;
14994;SDS011;7593;49.006;8.372;2023-06-14T03:10:34;7.10;;;6.28;;
14994;SDS011;7593;49.006;8.372;2023-06-14T03:13:00;7.32;;;6.75;;
14994;SDS011;7593;49.006;8.372;2023-06-14T03:15:27;5.70;;;5.20;;
14994;SDS011;7593;49.006;8.372;2023-06-14T03:17:54;6.20;;;4.95;;
14994;SDS011;7593;49.006;8.372;2023-06-14T03:20:21;7.75;;;5.43;;
14994;SDS011;7593;49.006;8.372;2023-06-14T03:22:48;5.78;;;4.97;;
14994;SDS011;7593;49.006;8.372;2023-06-14T03:25:17;5.82;;;5.25;;
14994;SDS011;7593;49.006;8.372;2023-06-14T03:27:43;6.47;;;5.78;;
14994;SDS011;7593;49.006;8.372;2023-06-14T03:30:11;6.68;;;5.00;;
14994;SDS011;7593;49.006;8.372;2023-06-14T03:32:38;6.60;;;4.90;;
14994;SDS011;7593;49.006;8.372;2023-06-14T03:35:05;6.32;;;5.32;;
14994;SDS011;7593;49.006;8.372;2023-06-14T03:37:32;5.95;;;4.80;;
14994;SDS011;7593;49.006;8.372;2023-06-14T03:39:59;5.45;;;4.95;;
14994;SDS011;7593;49.006;8.372;2023-06-14T03:42:27;6.25;;;5.65;;
14994;SDS011;7593;49.006;8.372;2023-06-14T03:44:54;6.60;;;5.72;;
14994;SDS011;7593;49.006;8.372;2023-06-14T03:47:20;6.40;;;5.80;;
14994;SDS011;7593;49.006;8.372;2023-06-14T03:49:47;5.93;;;5.32;;
14994;SDS011;7593;49.006;8.372;2023-06-14T03:52:14;8.55;;;5.82;;
14994;SDS011;7593;49.006;8.372;2023-06-14T03:54:41;5.30;;;4.90;;
14994;SDS011;7593;49.006;8.372;2023-06-14T03:57:09;6.97;;;5.30;;
14994;SDS011;7593;49.006;8.372;2023-06-14T03:59:37;5.78;;;5.28;;
14994;SDS011;7593;49.006;8.372;2023-06-14T04:02:04;5.30;;;4.80;;
14994;SDS011;7593;49.006;8.372;2023-06-14T04:04:32;7.90;;;4.88;;
14994;SDS011;7593;49.006;8.372;2023-06-14T04:07:00;5.85;;;5.35;;
14994;SDS011;7593;49.006;8.372;2023-06-14T04:09:28;8.18;;;5.30;;
14994;SDS011;7593;49.006;8.372;2023-06-14T04:11:55;6.10;;;5.13;;
14994;SDS011;7593;49.006;8.372;2023-06-14T04:14:22;5.70;;;5.13;;
14994;SDS011;7593;49.006;8.372;2023-06-14T04:16:50;6.85;;;5.38;;
14994;SDS011;7593;49.006;8.372;2023-06-14T04:19:17;5.68;;;5.07;;
14994;SDS011;7593;49.006;8.372;2023-06-14T04:21:43;6.20;;;5.60;;
14994;SDS011;7593;49.006;8.372;2023-06-14T04:24:10;5.93;;;5.35;;
14994;SDS011;7593;49.006;8.372;2023-06-14T04:26:38;8.02;;;5.50;;
14994;SDS011;7593;49.006;8.372;2023-06-14T04:29:05;7.72;;;5.47;;
14994;SDS011;7593;49.006;8.372;2023-06-14T04:31:32;6.40;;;5.68;;
14994;SDS011;7593;49.006;8.372;2023-06-14T04:34:00;7.90;;;5.95;;
14994;SDS011;7593;49.006;8.372;2023-06-14T04:36:30;8.80;;;5.90;;
14994;SDS011;7593;49.006;8.372;2023-06-14T04:38:59;6.43;;;5.70;;
14994;SDS011;7593;49.006;8.372;2023-06-14T04:41:28;7.88;;;5.90;;
14994;SDS011;7593;49.006;8.372;2023-06-14T04:43:55;8.00;;;5.90;;
14994;SDS011;7593;49.006;8.372;2023-06-14T04:46:26;7.13;;;5.70;;
14994;SDS011;7593;49.006;8.372;2023-06-14T04:48:53;6.20;;;5.32;;
14994;SDS011;7593;49.006;8.372;2023-06-14T04:51:21;7.50;;;5.68;;
14994;SDS011;7593;49.006;8.372;2023-06-14T04:53:54;7.13;;;6.00;;
14994;SDS011;7593;49.006;8.372;2023-06-14T04:56:23;8.57;;;5.28;;
14994;SDS011;7593;49.006;8.372;2023-06-14T04:58:51;6.90;;;5.70;;
14994;SDS011;7593;49.006;8.372;2023-06-14T05:01:18;6.28;;;5.55;;
14994;SDS011;7593;49.006;8.372;2023-06-14T05:03:46;5.85;;;5.28;;
14994;SDS011;7593;49.006;8.372;2023-06-14T05:06:13;6.45;;;5.85;;
14994;SDS011;7593;49.006;8.372;2023-06-14T05:08:42;6.97;;;5.88;;
14994;SDS011;7593;49.006;8.372;2023-06-14T05:11:08;10.00;;;6.43;;
14994;SDS011;7593;49.006;8.372;2023-06-14T05:13:35;8.00;;;6.00;;
14994;SDS011;7593;49.006;8.372;2023-06-14T05:16:02;8.82;;;6.00;;
14994;SDS011;7593;49.006;8.372;2023-06-14T05:18:29;6.70;;;6.00;;
14994;SDS011;7593;49.006;8.372;2023-06-14T05:20:56;8.90;;;6.30;;
14994;SDS011;7593;49.006;8.372;2023-06-14T05:23:23;6.78;;;6.10;;
14994;SDS011;7593;49.006;8.372;2023-06-14T05:25:51;7.03;;;6.32;;
14994;SDS011;7593;49.006;8.372;2023-06-14T05:28:17;6.82;;;6.00;;
14994;SDS011;7593;49.006;8.372;2023-06-14T05:30:45;7.38;;;6.47;;
14994;SDS011;7593;49.006;8.372;2023-06-14T05:33:12;12.73;;;6.60;;
14994;SDS011;7593;49.006;8.372;2023-06-14T05:35:39;10.95;;;6.28;;
14994;SDS011;7593;49.006;8.372;2023-06-14T05:38:06;7.05;;;6.28;;
14994;SDS011;7593;49.006;8.372;2023-06-14T05:40:32;12.32;;;6.60;;
14994;SDS011;7593;49.006;8.372;2023-06-14T05:43:00;7.18;;;6.13;;
14994;SDS011;7593;49.006;8.372;2023-06-14T05:45:27;8.35;;;6.53;;
14994;SDS011;7593;49.006;8.372;2023-06-14T05:47:54;8.13;;;6.45;;
14994;SDS011;7593;49.006;8.372;2023-06-14T05:50:21;6.53;;;5.85;;
14994;SDS011;7593;49.006;8.372;2023-06-14T05:52:47;6.53;;;6.03;;
14994;SDS011;7593;49.006;8.372;2023-06-14T05:55:15;8.57;;;6.57;;
14994;SDS011;7593;49.006;8.372;2023-06-14T05:57:42;7.80;;;6.95;;
14994;SDS011;7593;49.006;8.372;2023-06-14T06:00:11;6.95;;;6.15;;
14994;SDS011;7593;49.006;8.372;2023-06-14T06:02:39;10.55;;;6.13;;
14994;SDS011;7593;49.006;8.372;2023-06-14T06:05:06;11.40;;;5.93;;
14994;SDS011;7593;49.006;8.372;2023-06-14T06:07:33;9.70;;;5.90;;
14994;SDS011;7593;49.006;8.372;2023-06-14T06:10:00;8.70;;;5.95;;
14994;SDS011;7593;49.006;8.372;2023-06-14T06:12:27;12.18;;;5.90;;
14994;SDS011;7593;49.006;8.372;2023-06-14T06:14:53;7.95;;;6.93;;
14994;SDS011;7593;49.006;8.372;2023-06-14T06:17:22;6.20;;;5.53;;
14994;SDS011;7593;49.006;8.372;2023-06-14T06:19:49;8.27;;;5.65;;
14994;SDS011;7593;49.006;8.372;2023-06-14T06:22:15;10.18;;;6.80;;
14994;SDS011;7593;49.006;8.372;2023-06-14T06:24:42;10.48;;;6.30;;
14994;SDS011;7593;49.006;8.372;2023-06-14T06:27:09;8.02;;;6.38;;
14994;SDS011;7593;49.006;8.372;2023-06-14T06:29:37;6.80;;;6.05;;
14994;SDS011;7593;49.006;8.372;2023-06-14T06:32:04;10.95;;;5.85;;
14994;SDS011;7593;49.006;8.372;2023-06-14T06:34:33;9.55;;;5.47;;
14994;SDS011;7593;49.006;8.372;2023-06-14T06:37:00;6.03;;;5.53;;
14994;SDS011;7593;49.006;8.372;2023-06-14T06:39:27;6.05;;;5.45;;
14994;SDS011;7593;49.006;8.372;2023-06-14T06:41:54;6.88;;;5.55;;
14994;SDS011;7593;49.006;8.372;2023-06-14T06:44:20;6.60;;;5.28;;
14994;SDS011;7593;49.006;8.372;2023-06-14T06:46:47;5.70;;;5.07;;
14994;SDS011;7593;49.006;8.372;2023-06-14T06:49:14;8.00;;;5.10;;
14994;SDS011;7593;49.006;8.372;2023-06-14T06:51:43;9.02;;;5.70;;
14994;SDS011;7593;49.006;8.372;2023-06-14T06:54:10;9.13;;;4.97;;
14994;SDS011;7593;49.006;8.372;2023-06-14T06:56:37;9.02;;;5.00;;
14994;SDS011;7593;49.006;8.372;2023-06-14T06:59:03;5.80;;;5.20;;
14994;SDS011;7593;49.006;8.372;2023-06-14T07:01:30;10.43;;;5.43;;
14994;SDS011;7593;49.006;8.372;2023-06-14T07:03:58;6.47;;;5.43;;
14994;SDS011;7593;49.006;8.372;2023-06-14T07:06:25;6.78;;;5.07;;
14994;SDS011;7593;49.006;8.372;2023-06-14T07:08:53;7.00;;;5.13;;
14994;SDS011;7593;49.006;8.372;2023-06-14T07:11:20;6.03;;;5.10;;
14994;SDS011;7593;49.006;8.372;2023-06-14T07:13:47;7.72;;;5.05;;
14994;SDS011;7593;49.006;8.372;2023-06-14T07:16:13;9.07;;;4.85;;
14994;SDS011;7593;49.006;8.372;2023-06-14T07:18:40;7.13;;;5.28;;
14994;SDS011;7593;49.006;8.372;2023-06-14T07:21:07;8.55;;;5.43;;
14994;SDS011;7593;49.006;8.372;2023-06-14T07:23:34;7.25;;;4.97;;
14994;SDS011;7593;49.006;8.372;2023-06-14T07:26:03;5.55;;;5.00;;
14994;SDS011;7593;49.006;8.372;2023-06-14T07:28:30;5.45;;;4.35;;
14994;SDS011;7593;49.006;8.372;2023-06-14T07:30:56;8.95;;;5.45;;
14994;SDS011;7593;49.006;8.372;2023-06-14T07:33:23;8.98;;;4.82;;
14994;SDS011;7593;49.006;8.372;2023-06-14T07:35:50;6.65;;;4.63;;
14994;SDS011;7593;49.006;8.372;2023-06-14T07:38:17;7.22;;;4.63;;
14994;SDS011;7593;49.006;8.372;2023-06-14T07:40:44;12.35;;;5.63;;
14994;SDS011;7593;49.006;8.372;2023-06-14T07:43:13;5.22;;;4.40;;
14994;SDS011;7593;49.006;8.372;2023-06-14T07:45:40;6.72;;;4.78;;
14994;SDS011;7593;49.006;8.372;2023-06-14T07:48:07;10.57;;;4.63;;
14994;SDS011;7593;49.006;8.372;2023-06-14T07:50:33;6.85;;;4.55;;
14994;SDS011;7593;49.006;8.372;2023-06-14T07:53:00;8.75;;;4.72;;
14994;SDS011;7593;49.006;8.372;2023-06-14T07:55:27;6.22;;;4.60;;
14994;SDS011;7593;49.006;8.372;2023-06-14T07:57:53;5.38;;;4.53;;
14994;SDS011;7593;49.006;8.372;2023-06-14T08:00:22;6.85;;;4.47;;
14994;SDS011;7593;49.006;8.372;2023-06-14T08:02:48;7.75;;;4.40;;
14994;SDS011;7593;49.006;8.372;2023-06-14T08:05:17;7.30;;;4.93;;
14994;SDS011;7593;49.006;8.372;2023-06-14T08:07:44;7.82;;;4.80;;
14994;SDS011;7593;49.006;8.372;2023-06-14T08:10:10;15.82;;;4.47;;
14994;SDS011;7593;49.006;8.372;2023-06-14T08:12:37;6.25;;;4.18;;
14994;SDS011;7593;49.006;8.372;2023-06-14T08:15:04;5.55;;;4.30;;
14994;SDS011;7593;49.006;8.372;2023-06-14T08:17:33;7.60;;;4.00;;
14994;SDS011;7593;49.006;8.372;2023-06-14T08:20:00;4.97;;;4.10;;
14994;SDS011;7593;49.006;8.372;2023-06-14T08:22:29;5.57;;;4.25;;
14994;SDS011;7593;49.006;8.372;2023-06-14T08:24:58;9.57;;;4.28;;
14994;SDS011;7593;49.006;8.372;2023-06-14T08:27:26;7.43;;;4.75;;
14994;SDS011;7593;49.006;8.372;2023-06-14T08:29:53;5.82;;;4.60;;
14994;SDS011;7593;49.006;8.372;2023-06-14T08:32:20;6.22;;;3.95;;
14994;SDS011;7593;49.006;8.372;2023-06-14T08:34:48;7.18;;;4.28;;
14994;SDS011;7593;49.006;8.372;2023-06-14T08:37:15;6.70;;;4.22;;
14994;SDS011;7593;49.006;8.372;2023-06-14T08:39:41;4.72;;;4.32;;
14994;SDS011;7593;49.006;8.372;2023-06-14T08:42:10;7.40;;;4.68;;
14994;SDS011;7593;49.006;8.372;2023-06-14T08:44:38;5.32;;;4.50;;
14994;SDS011;7593;49.006;8.372;2023-06-14T08:47:05;4.55;;;4.15;;
14994;SDS011;7593;49.006;8.372;2023-06-14T08:49:33;5.18;;;4.25;;
14994;SDS011;7593;49.006;8.372;2023-06-14T08:52:06;4.97;;;4.35;;
14994;SDS011;7593;49.006;8.372;2023-06-14T08:54:37;5.38;;;4.30;;
14994;SDS011;7593;49.006;8.372;2023-06-14T08:57:08;5.65;;;4.28;;
14994;SDS011;7593;49.006;8.372;2023-06-14T08:59:37;4.63;;;3.72;;
14994;SDS011;7593;49.006;8.372;2023-06-14T09:02:11;6.88;;;4.07;;
14994;SDS011;7593;49.006;8.372;2023-06-14T09:04:39;8.02;;;4.47;;
14994;SDS011;7593;49.006;8.372;2023-06-14T09:07:07;5.75;;;4.07;;
14994;SDS011;7593;49.006;8.372;2023-06-14T09:09:38;5.32;;;3.90;;
14994;SDS011;7593;49.006;8.372;2023-06-14T09:12:06;5.95;;;4.22;;
14994;SDS011;7593;49.006;8.372;2023-06-14T09:14:36;7.00;;;4.10;;
14994;SDS011;7593;49.006;8.372;2023-06-14T09:17:05;5.82;;;4.13;;
14994;SDS011;7593;49.006;8.372;2023-06-14T09:19:32;8.90;;;4.10;;
14994;SDS011;7593;49.006;8.372;2023-06-14T09:22:00;5.00;;;4.03;;
14994;SDS011;7593;49.006;8.372;2023-06-14T09:24:28;4.45;;;4.00;;
14994;SDS011;7593;49.006;8.372;2023-06-14T09:26:55;4.68;;;3.92;;
14994;SDS011;7593;49.006;8.372;2023-06-14T09:29:22;5.22;;;4.10;;
14994;SDS011;7593;49.006;8.372;2023-06-14T09:31:50;8.25;;;4.13;;
14994;SDS011;7593;49.006;8.372;2023-06-14T09:34:17;6.15;;;4.40;;
14994;SDS011;7593;49.006;8.372;2023-06-14T09:36:48;10.55;;;4.32;;
14994;SDS011;7593;49.006;8.372;2023-06-14T09:39:16;6.05;;;4.05;;
14994;SDS011;7593;49.006;8.372;2023-06-14T09:41:45;7.53;;;3.70;;
14994;SDS011;7593;49.006;8.372;2023-06-14T09:44:11;6.53;;;4.00;;
14994;SDS011;7593;49.006;8.372;2023-06-14T09:46:38;6.97;;;3.80;;
14994;SDS011;7593;49.006;8.372;2023-06-14T09:49:05;7.53;;;3.58;;
14994;SDS011;7593;49.006;8.372;2023-06-14T09:51:32;4.45;;;3.45;;
14994;SDS011;7593;49.006;8.372;2023-06-14T09:54:01;5.10;;;3.20;;
14994;SDS011;7593;49.006;8.372;2023-06-14T09:56:30;4.72;;;3.17;;
14994;SDS011;7593;49.006;8.372;2023-06-14T09:58:59;5.82;;;3.70;;
14994;SDS011;7593;49.006;8.372;2023-06-14T10:01:30;4.93;;;3.38;;
14994;SDS011;7593;49.006;8.372;2023-06-14T10:03:58;5.35;;;3.70;;
14994;SDS011;7593;49.006;8.372;2023-06-14T10:06:29;3.78;;;3.30;;
14994;SDS011;7593;49.006;8.372;2023-06-14T10:08:56;6.88;;;3.03;;
14994;SDS011;7593;49.006;8.372;2023-06-14T10:11:24;5.90;;;3.40;;
14994;SDS011;7593;49.006;8.372;2023-06-14T10:13:52;4.90;;;3.13;;
14994;SDS011;7593;49.006;8.372;2023-06-14T10:16:23;6.15;;;3.75;;
14994;SDS011;7593;49.006;8.372;2023-06-14T10:18:58;6.15;;;3.30;;
14994;SDS011;7593;49.006;8.372;2023-06-14T10:21:35;7.35;;;3.38;;
14994;SDS011;7593;49.006;8.372;2023-06-14T10:24:07;6.85;;;4.05;;
14994;SDS011;7593;49.006;8.372;2023-06-14T10:26:39;7.20;;;3.40;;
14994;SDS011;7593;49.006;8.372;2023-06-14T10:29:17;9.75;;;3.38;;
14994;SDS011;7593;49.006;8.372;2023-06-14T10:31:46;6.38;;;3.00;;
14994;SDS011;7593;49.006;8.372;2023-06-14T10:34:20;3.97;;;3.22;;
14994;SDS011;7593;49.006;8.372;2023-06-14T10:36:59;4.57;;;3.03;;
14994;SDS011;7593;49.006;8.372;2023-06-14T10:39:28;5.45;;;3.10;;
14994;SDS011;7593;49.006;8.372;2023-06-14T10:41:56;6.40;;;3.35;;
14994;SDS011;7593;49.006;8.372;2023-06-14T10:44:33;3.42;;;3.00;;
14994;SDS011;7593;49.006;8.372;2023-06-14T10:47:07;7.07;;;3.50;;
14994;SDS011;7593;49.006;8.372;2023-06-14T10:49:36;4.70;;;3.28;;
14994;SDS011;7593;49.006;8.372;2023-06-14T10:52:07;5.43;;;3.17;;
14994;SDS011;7593;49.006;8.372;2023-06-14T10:55:04;4.03;;;3.15;;
14994;SDS011;7593;49.006;8.372;2023-06-14T10:57:34;5.80;;;3.05;;
14994;SDS011;7593;49.006;8.372;2023-06-14T11:00:02;4.60;;;2.78;;
14994;SDS011;7593;49.006;8.372;2023-06-14T11:05:48;6.20;;;2.90;;
14994;SDS011;7593;49.006;8.372;2023-06-14T11:08:27;7.68;;;3.17;;
14994;SDS011;7593;49.006;8.372;2023-06-14T11:11:07;7.35;;;3.35;;
14994;SDS011;7593;49.006;8.372;2023-06-14T11:13:36;7.40;;;3.08;;
14994;SDS011;7593;49.006;8.372;2023-06-14T11:16:09;6.60;;;3.28;;
14994;SDS011;7593;49.006;8.372;2023-06-14T11:18:37;5.78;;;3.10;;
14994;SDS011;7593;49.006;8.372;2023-06-14T11:21:05;3.90;;;3.53;;
14994;SDS011;7593;49.006;8.372;2023-06-14T11:23:32;8.07;;;3.47;;
14994;SDS011;7593;49.006;8.372;2023-06-14T11:25:58;5.68;;;3.55;;
14994;SDS011;7593;49.006;8.372;2023-06-14T11:28:35;5.82;;;3.55;;
14994;SDS011;7593;49.006;8.372;2023-06-14T11:31:03;5.60;;;3.78;;
14994;SDS011;7593;49.006;8.372;2023-06-14T11:33:30;5.85;;;3.65;;
14994;SDS011;7593;49.006;8.372;2023-06-14T11:35:57;8.43;;;3.72;;
14994;SDS011;7593;49.006;8.372;2023-06-14T11:38:25;7.90;;;3.63;;
14994;SDS011;7593;49.006;8.372;2023-06-14T11:40:52;8.07;;;3.90;;
14994;SDS011;7593;49.006;8.372;2023-06-14T11:43:19;5.63;;;3.53;;
14994;SDS011;7593;49.006;8.372;2023-06-14T11:45:47;4.47;;;3.50;;
14994;SDS011;7593;49.006;8.372;2023-06-14T11:48:15;5.57;;;3.60;;
14994;SDS011;7593;49.006;8.372;2023-06-14T11:50:43;5.32;;;3.85;;
14994;SDS011;7593;49.006;8.372;2023-06-14T11:53:09;7.15;;;3.90;;
14994;SDS011;7593;49.006;8.372;2023-06-14T11:55:38;6.65;;;3.67;;
14994;SDS011;7593;49.006;8.372;2023-06-14T11:58:06;8.40;;;3.53;;
14994;SDS011;7593;49.006;8.372;2023-06-14T12:00:35;5.68;;;3.10;;
14994;SDS011;7593;49.006;8.372;2023-06-14T12:03:02;7.18;;;3.80;;
14994;SDS011;7593;49.006;8.372;2023-06-14T12:05:28;6.40;;;3.28;;
14994;SDS011;7593;49.006;8.372;2023-06-14T12:07:58;6.68;;;3.80;;
14994;SDS011;7593;49.006;8.372;2023-06-14T12:10:26;4.70;;;3.50;;
14994;SDS011;7593;49.006;8.372;2023-06-14T12:12:57;5.97;;;3.30;;
14994;SDS011;7593;49.006;8.372;2023-06-14T12:15:27;6.35;;;3.33;;
14994;SDS011;7593;49.006;8.372;2023-06-14T12:17:55;6.03;;;3.80;;
14994;SDS011;7593;49.006;8.372;2023-06-14T12:20:28;4.95;;;3.53;;
14994;SDS011;7593;49.006;8.372;2023-06-14T12:22:56;5.07;;;3.20;;
14994;SDS011;7593;49.006;8.372;2023-06-14T12:25:26;4.32;;;3.20;;
14994;SDS011;7593;49.006;8.372;2023-06-14T12:27:56;4.70;;;3.08;;
14994;SDS011;7593;49.006;8.372;2023-06-14T12:30:24;3.58;;;3.08;;
14994;SDS011;7593;49.006;8.372;2023-06-14T12:32:51;5.88;;;3.00;;
14994;SDS011;7593;49.006;8.372;2023-06-14T12:35:18;4.90;;;2.97;;
14994;SDS011;7593;49.006;8.372;2023-06-14T12:37:45;4.35;;;2.65;;
14994;SDS011;7593;49.006;8.372;2023-06-14T12:40:11;4.80;;;2.65;;
14994;SDS011;7593;49.006;8.372;2023-06-14T12:42:39;5.25;;;2.70;;
14994;SDS011;7593;49.006;8.372;2023-06-14T12:45:08;6.30;;;3.00;;
14994;SDS011;7593;49.006;8.372;2023-06-14T12:47:36;5.25;;;2.80;;
14994;SDS011;7593;49.006;8.372;2023-06-14T12:50:03;5.03;;;2.67;;
14994;SDS011;7593;49.006;8.372;2023-06-14T12:52:31;5.53;;;2.65;;
14994;SDS011;7593;49.006;8.372;2023-06-14T12:55:00;3.60;;;2.80;;
14994;SDS011;7593;49.006;8.372;2023-06-14T12:57:28;5.28;;;2.70;;
14994;SDS011;7593;49.006;8.372;2023-06-14T12:59:55;4.38;;;2.63;;
14994;SDS011;7593;49.006;8.372;2023-06-14T13:02:23;4.18;;;2.58;;
14994;SDS011;7593;49.006;8.372;2023-06-14T13:04:50;4.05;;;2.78;;
14994;SDS011;7593;49.006;8.372;2023-06-14T13:07:17;5.38;;;3.03;;
14994;SDS011;7593;49.006;8.372;2023-06-14T13:09:44;7.50;;;3.20;;
14994;SDS011;7593;49.006;8.372;2023-06-14T13:12:11;7.32;;;3.28;;
14994;SDS011;7593;49.006;8.372;2023-06-14T13:14:38;7.32;;;3.67;;
14994;SDS011;7593;49.006;8.372;2023-06-14T13:17:05;4.05;;;3.10;;
14994;SDS011;7593;49.006;8.372;2023-06-14T13:19:34;5.68;;;2.50;;
14994;SDS011;7593;49.006;8.372;2023-06-14T13:22:01;4.95;;;2.67;;
14994;SDS011;7593;49.006;8.372;2023-06-14T13:24:28;5.38;;;2.63;;
14994;SDS011;7593;49.006;8.372;2023-06-14T13:26:55;6.38;;;3.03;;
14994;SDS011;7593;49.006;8.372;2023-06-14T13:29:22;8.18;;;2.67;;
14994;SDS011;7593;49.006;8.372;2023-06-14T13:31:49;4.90;;;2.70;;
14994;SDS011;7593;49.006;8.372;2023-06-14T13:34:16;4.20;;;2.80;;
14994;SDS011;7593;49.006;8.372;2023-06-14T13:36:44;3.97;;;2.65;;
14994;SDS011;7593;49.006;8.372;2023-06-14T13:39:12;6.20;;;2.65;;
14994;SDS011;7593;49.006;8.372;2023-06-14T13:41:39;7.50;;;3.63;;
14994;SDS011;7593;49.006;8.372;2023-06-14T13:44:05;4.43;;;2.80;;
14994;SDS011;7593;49.006;8.372;2023-06-14T13:46:32;4.78;;;2.70;;
14994;SDS011;7593;49.006;8.372;2023-06-14T13:48:59;4.00;;;2.70;;
14994;SDS011;7593;49.006;8.372;2023-06-14T13:51:27;4.53;;;2.50;;
14994;SDS011;7593;49.006;8.372;2023-06-14T13:53:55;4.72;;;2.70;;
14994;SDS011;7593;49.006;8.372;2023-06-14T13:56:22;5.43;;;2.80;;
14994;SDS011;7593;49.006;8.372;2023-06-14T13:58:49;4.70;;;2.90;;
14994;SDS011;7593;49.006;8.372;2023-06-14T14:01:16;3.80;;;2.60;;
14994;SDS011;7593;49.006;8.372;2023-06-14T14:03:44;6.47;;;2.67;;
14994;SDS011;7593;49.006;8.372;2023-06-14T14:06:11;4.72;;;2.80;;
14994;SDS011;7593;49.006;8.372;2023-06-14T14:08:38;5.07;;;2.65;;
14994;SDS011;7593;49.006;8.372;2023-06-14T14:11:07;4.45;;;2.80;;
14994;SDS011;7593;49.006;8.372;2023-06-14T14:13:34;7.65;;;2.92;;
14994;SDS011;7593;49.006;8.372;2023-06-14T14:16:01;4.60;;;2.72;;
14994;SDS011;7593;49.006;8.372;2023-06-14T14:18:28;6.78;;;3.00;;
14994;SDS011;7593;49.006;8.372;2023-06-14T14:20:55;6.22;;;3.10;;
14994;SDS011;7593;49.006;8.372;2023-06-14T14:23:22;4.28;;;3.00;;
14994;SDS011;7593;49.006;8.372;2023-06-14T14:25:49;5.07;;;2.80;;
14994;SDS011;7593;49.006;8.372;2023-06-14T14:28:17;7.00;;;2.80;;
14994;SDS011;7593;49.006;8.372;2023-06-14T14:30:45;4.75;;;2.60;;
14994;SDS011;7593;49.006;8.372;2023-06-14T14:33:12;4.00;;;2.58;;
14994;SDS011;7593;49.006;8.372;2023-06-14T14:35:41;3.83;;;2.70;;
14994;SDS011;7593;49.006;8.372;2023-06-14T14:38:08;4.15;;;2.58;;
14994;SDS011;7593;49.006;8.372;2023-06-14T14:40:35;4.93;;;2.60;;
14994;SDS011;7593;49.006;8.372;2023-06-14T14:43:02;4.93;;;2.45;;
14994;SDS011;7593;49.006;8.372;2023-06-14T14:45:30;3.28;;;2.35;;
14994;SDS011;7593;49.006;8.372;2023-06-14T14:47:57;2.58;;;2.30;;
14994;SDS011;7593;49.006;8.372;2023-06-14T14:50:25;4.18;;;1.95;;
14994;SDS011;7593;49.006;8.372;2023-06-14T14:52:51;4.18;;;2.33;;
14994;SDS011;7593;49.006;8.372;2023-06-14T14:55:18;4.75;;;2.05;;
14994;SDS011;7593;49.006;8.372;2023-06-14T14:57:45;4.22;;;2.20;;
14994;SDS011;7593;49.006;8.372;2023-06-14T15:00:12;3.05;;;2.30;;
14994;SDS011;7593;49.006;8.372;2023-06-14T15:02:41;3.47;;;2.40;;
14994;SDS011;7593;49.006;8.372;2023-06-14T15:05:08;6.10;;;3.28;;
14994;SDS011;7593;49.006;8.372;2023-06-14T15:07:34;5.57;;;2.50;;